createdAt,value
2019-05-21T00:01:01.644Z,11.67
2019-05-21T00:03:30.844Z,9.20
2019-05-21T00:06:00.110Z,10.47
2019-05-21T00:08:29.312Z,13.55
2019-05-21T00:10:58.540Z,10.83
2019-05-21T00:13:27.819Z,11.55
2019-05-21T00:15:57.080Z,10.10
2019-05-21T00:18:26.396Z,9.05
2019-05-21T00:20:55.639Z,8.93
2019-05-21T00:23:24.898Z,10.00
2019-05-21T00:25:54.247Z,11.00
2019-05-21T00:28:37.640Z,12.15
2019-05-21T00:31:42.823Z,9.50
2019-05-21T00:34:47.934Z,10.15
2019-05-21T00:37:53.075Z,10.45
2019-05-21T00:40:58.167Z,11.80
2019-05-21T00:43:44.178Z,11.68
2019-05-21T00:46:13.546Z,15.03
2019-05-21T00:48:43.041Z,10.90
2019-05-21T00:51:12.418Z,11.90
2019-05-21T00:53:41.743Z,13.38
2019-05-21T00:56:10.970Z,12.30
2019-05-21T00:58:40.257Z,12.98
2019-05-21T01:01:09.593Z,10.30
2019-05-21T01:03:38.853Z,13.35
2019-05-21T01:06:08.133Z,11.05
2019-05-21T01:08:37.327Z,10.05
2019-05-21T01:11:06.548Z,12.17
2019-05-21T01:13:35.770Z,12.80
2019-05-21T01:16:05.259Z,11.75
2019-05-21T01:18:34.598Z,14.10
2019-05-21T01:21:03.988Z,16.25
2019-05-21T01:23:33.170Z,12.10
2019-05-21T01:26:02.432Z,14.68
2019-05-21T01:28:31.720Z,14.07
2019-05-21T01:31:00.984Z,13.48
2019-05-21T01:33:30.178Z,12.73
2019-05-21T01:35:59.510Z,18.05
2019-05-21T01:38:28.813Z,14.93
2019-05-21T01:40:58.097Z,18.17
2019-05-21T01:43:27.478Z,11.00
2019-05-21T01:45:56.753Z,13.43
2019-05-21T01:48:25.952Z,13.93
2019-05-21T01:50:55.252Z,13.67
2019-05-21T01:53:24.443Z,19.20
2019-05-21T01:55:53.642Z,17.37
2019-05-21T01:58:23.054Z,11.63
2019-05-21T02:00:52.315Z,17.23
2019-05-21T02:03:21.589Z,16.40
2019-05-21T02:05:51.395Z,15.37
2019-05-21T02:08:20.659Z,13.72
2019-05-21T02:10:49.851Z,14.47
2019-05-21T02:13:19.214Z,15.10
2019-05-21T02:15:48.475Z,15.60
2019-05-21T02:18:17.747Z,13.03
2019-05-21T02:20:47.106Z,18.00
2019-05-21T02:23:16.301Z,12.83
2019-05-21T02:25:45.574Z,14.68
2019-05-21T02:28:14.933Z,11.63
2019-05-21T02:30:44.225Z,14.68
2019-05-21T02:33:13.473Z,15.30
2019-05-21T02:35:53.566Z,12.03
2019-05-21T02:38:13.739Z,12.75
2019-05-21T02:40:42.925Z,13.45
2019-05-21T02:43:12.159Z,11.75
2019-05-21T02:45:41.421Z,12.18
2019-05-21T02:48:10.610Z,10.85
2019-05-21T02:50:39.828Z,13.88
2019-05-21T02:53:09.098Z,8.63
2019-05-21T02:55:38.358Z,10.03
2019-05-21T02:58:07.864Z,9.83
2019-05-21T03:01:17.724Z,8.88
2019-05-21T03:03:45.667Z,11.78
2019-05-21T03:06:15.241Z,13.15
2019-05-21T03:08:44.896Z,9.05
2019-05-21T03:11:14.216Z,8.25
2019-05-21T03:13:43.535Z,10.05
2019-05-21T03:16:12.783Z,8.68
2019-05-21T03:18:42.155Z,10.20
2019-05-21T03:21:30.494Z,8.45
2019-05-21T03:23:59.834Z,10.82
2019-05-21T03:26:29.157Z,10.30
2019-05-21T03:28:58.350Z,8.05
2019-05-21T03:31:27.707Z,10.82
2019-05-21T03:33:57.212Z,9.38
2019-05-21T03:36:33.251Z,8.18
2019-05-21T03:38:57.522Z,7.87
2019-05-21T03:41:26.773Z,10.88
2019-05-21T03:43:56.124Z,8.80
2019-05-21T03:46:25.378Z,10.13
2019-05-21T03:48:54.794Z,7.58
2019-05-21T03:51:23.976Z,9.78
2019-05-21T03:53:53.278Z,8.35
2019-05-21T03:56:22.555Z,8.33
2019-05-21T03:58:51.815Z,9.20
2019-05-21T04:01:21.142Z,8.03
2019-05-21T04:03:50.411Z,7.95
2019-05-21T04:06:19.677Z,8.00
2019-05-21T04:08:48.903Z,9.90
2019-05-21T04:11:18.196Z,6.67
2019-05-21T04:13:47.467Z,7.50
2019-05-21T04:16:25.870Z,7.97
2019-05-21T04:19:02.404Z,7.50
2019-05-21T04:21:31.697Z,7.78
2019-05-21T04:24:00.952Z,7.42
2019-05-21T04:26:30.124Z,8.40
2019-05-21T04:28:59.504Z,6.85
2019-05-21T04:31:28.769Z,10.00
2019-05-21T04:33:58.018Z,10.48
2019-05-21T04:36:27.734Z,8.20
2019-05-21T04:38:57.012Z,7.47
2019-05-21T04:41:26.287Z,7.92
2019-05-21T04:43:55.581Z,7.95
2019-05-21T04:46:24.855Z,8.48
2019-05-21T04:48:54.118Z,7.60
2019-05-21T04:51:23.427Z,7.92
2019-05-21T04:53:52.722Z,7.17
2019-05-21T04:56:21.944Z,9.00
2019-05-21T04:58:51.308Z,6.58
2019-05-21T05:01:20.568Z,6.55
2019-05-21T05:03:49.853Z,6.78
2019-05-21T05:06:19.162Z,9.75
2019-05-21T05:08:48.505Z,9.95
2019-05-21T05:11:17.831Z,7.90
2019-05-21T05:13:47.055Z,8.48
2019-05-21T05:16:16.368Z,9.53
2019-05-21T05:18:45.566Z,10.80
2019-05-21T05:21:14.912Z,8.20
2019-05-21T05:23:44.251Z,9.35
2019-05-21T05:26:13.812Z,10.03
2019-05-21T05:28:43.169Z,9.40
2019-05-21T05:31:15.195Z,10.28
2019-05-21T05:33:43.269Z,10.60
2019-05-21T05:36:12.776Z,9.03
2019-05-21T05:38:42.050Z,11.22
2019-05-21T05:41:11.257Z,9.05
2019-05-21T05:43:40.499Z,10.05
2019-05-21T05:46:10.239Z,11.10
2019-05-21T05:48:46.393Z,12.05
2019-05-21T05:51:15.666Z,12.23
2019-05-21T05:53:57.568Z,9.90
2019-05-21T05:56:28.446Z,11.45
2019-05-21T05:58:57.750Z,11.40
2019-05-21T06:01:28.416Z,10.27
2019-05-21T06:03:57.752Z,12.53
2019-05-21T06:06:27.278Z,11.97
2019-05-21T06:08:56.593Z,13.13
2019-05-21T06:11:25.868Z,12.20
2019-05-21T06:13:55.071Z,9.90
2019-05-21T06:16:24.379Z,9.73
2019-05-21T06:18:53.634Z,8.47
2019-05-21T06:21:22.890Z,8.85
2019-05-21T06:23:52.260Z,10.80
2019-05-21T06:26:21.530Z,11.10
2019-05-21T06:28:50.824Z,10.68
2019-05-21T06:31:20.296Z,8.50
2019-05-21T06:33:49.555Z,7.35
2019-05-21T06:36:18.902Z,11.22
2019-05-21T06:38:48.108Z,9.65
2019-05-21T06:41:17.309Z,9.93
2019-05-21T06:43:46.588Z,8.68
2019-05-21T06:46:15.880Z,10.08
2019-05-21T06:48:45.082Z,10.63
2019-05-21T06:51:16.258Z,9.53
2019-05-21T06:53:45.480Z,10.23
2019-05-21T06:56:14.754Z,10.88
2019-05-21T06:58:44.048Z,11.80
2019-05-21T07:01:13.402Z,13.28
2019-05-21T07:03:42.603Z,11.73
2019-05-21T07:06:11.873Z,11.75
2019-05-21T07:08:41.227Z,13.95
2019-05-21T07:11:10.632Z,12.25
2019-05-21T07:13:39.977Z,11.33
2019-05-21T07:16:09.250Z,12.58
2019-05-21T07:18:41.356Z,13.40
2019-05-21T07:21:09.445Z,12.98
2019-05-21T07:23:38.724Z,13.53
2019-05-21T07:26:07.909Z,12.18
2019-05-21T07:28:37.175Z,9.40
2019-05-21T07:31:06.791Z,13.57
2019-05-21T07:33:36.092Z,9.23
2019-05-21T07:36:05.353Z,9.50
2019-05-21T07:38:50.273Z,10.82
2019-05-21T07:41:05.870Z,9.23
2019-05-21T07:43:35.168Z,10.10
2019-05-21T07:46:04.472Z,9.90
2019-05-21T07:48:33.781Z,11.67
2019-05-21T07:51:02.952Z,9.30
2019-05-21T07:53:32.309Z,10.23
2019-05-21T07:56:02.344Z,8.70
2019-05-21T07:58:32.057Z,8.50
2019-05-21T08:01:01.830Z,9.00
2019-05-21T08:03:31.231Z,10.50
2019-05-21T08:06:00.712Z,11.73
2019-05-21T08:08:30.132Z,10.37
2019-05-21T08:10:59.384Z,9.20
2019-05-21T08:13:28.643Z,6.77
2019-05-21T08:15:57.872Z,9.25
2019-05-21T08:18:27.288Z,10.80
2019-05-21T08:20:56.467Z,9.63
2019-05-21T08:23:25.778Z,8.78
2019-05-21T08:25:55.052Z,9.07
2019-05-21T08:28:24.245Z,7.37
2019-05-21T08:30:53.556Z,7.50
2019-05-21T08:33:22.806Z,8.90
2019-05-21T08:35:52.140Z,9.20
2019-05-21T08:38:21.516Z,8.63
2019-05-21T08:40:50.832Z,8.00
2019-05-21T08:43:22.063Z,8.57
2019-05-21T08:45:50.960Z,9.13
2019-05-21T08:48:20.207Z,7.57
2019-05-21T08:50:49.484Z,7.20
2019-05-21T08:53:18.700Z,7.87
2019-05-21T08:55:48.187Z,7.80
2019-05-21T08:58:17.469Z,8.30
2019-05-21T09:00:46.846Z,7.90
2019-05-21T09:03:16.036Z,7.57
2019-05-21T09:05:45.224Z,10.67
2019-05-21T09:08:14.661Z,8.70
2019-05-21T09:10:43.931Z,9.37
2019-05-21T09:13:13.588Z,10.93
2019-05-21T09:15:42.787Z,8.23
2019-05-21T09:18:12.048Z,8.20
2019-05-21T09:20:41.225Z,8.30
2019-05-21T09:23:10.577Z,6.60
2019-05-21T09:25:39.810Z,8.77
2019-05-21T09:28:09.048Z,7.27
2019-05-21T09:30:38.276Z,8.53
2019-05-21T09:33:07.570Z,7.07
2019-05-21T09:35:36.797Z,6.70
2019-05-21T09:38:06.008Z,7.00
2019-05-21T09:40:35.190Z,6.70
2019-05-21T09:43:04.396Z,9.13
2019-05-21T09:45:33.694Z,8.17
2019-05-21T09:48:03.033Z,9.10
2019-05-21T09:50:32.215Z,7.37
2019-05-21T09:53:01.506Z,7.07
2019-05-21T09:55:33.598Z,8.10
2019-05-21T09:58:20.926Z,10.10
2019-05-21T10:01:18.606Z,8.30
2019-05-21T10:03:53.965Z,8.37
2019-05-21T10:06:23.312Z,6.77
2019-05-21T10:08:52.737Z,6.43
2019-05-21T10:11:21.998Z,7.50
2019-05-21T10:13:51.368Z,7.47
2019-05-21T10:16:20.799Z,6.00
2019-05-21T10:18:50.082Z,6.80
2019-05-21T10:21:19.445Z,8.93
2019-05-21T10:23:49.083Z,9.40
2019-05-21T10:26:18.356Z,6.07
2019-05-21T10:28:47.548Z,6.23
2019-05-21T10:31:16.876Z,7.47
2019-05-21T10:33:46.223Z,6.53
2019-05-21T10:36:15.620Z,8.53
2019-05-21T10:38:44.946Z,7.60
2019-05-21T10:41:14.295Z,6.43
2019-05-21T10:43:43.625Z,7.03
2019-05-21T10:46:12.885Z,9.67
2019-05-21T10:48:42.164Z,7.30
2019-05-21T10:51:11.475Z,5.77
2019-05-21T10:53:41.129Z,6.80
2019-05-21T10:56:10.484Z,8.93
2019-05-21T10:58:39.660Z,6.00
2019-05-21T11:01:27.896Z,5.90
2019-05-21T11:04:14.749Z,5.87
2019-05-21T11:06:45.760Z,6.67
2019-05-21T11:09:20.082Z,7.53
2019-05-21T11:11:49.666Z,5.13
2019-05-21T11:14:18.980Z,6.17
2019-05-21T11:16:48.253Z,6.23
2019-05-21T11:19:17.527Z,5.90
2019-05-21T11:21:46.853Z,6.00
2019-05-21T11:24:16.201Z,6.20
2019-05-21T11:26:45.518Z,6.07
2019-05-21T11:29:14.882Z,5.00
2019-05-21T11:31:56.294Z,5.53
2019-05-21T11:34:14.988Z,4.93
2019-05-21T11:36:44.250Z,6.03
2019-05-21T11:39:13.419Z,5.60
2019-05-21T11:41:42.621Z,5.30
2019-05-21T11:44:11.892Z,4.07
2019-05-21T11:46:41.212Z,5.60
2019-05-21T11:49:10.623Z,5.50
2019-05-21T11:51:39.815Z,4.23
2019-05-21T11:54:09.088Z,4.13
2019-05-21T11:56:38.312Z,5.00
2019-05-21T11:59:07.554Z,5.00
2019-05-21T12:01:36.809Z,5.83
2019-05-21T12:04:06.090Z,5.80
2019-05-21T12:06:35.345Z,4.30
2019-05-21T12:09:06.264Z,3.73
2019-05-21T12:11:35.522Z,5.03
2019-05-21T12:14:05.540Z,5.97
2019-05-21T12:16:34.816Z,5.17
2019-05-21T12:19:07.752Z,4.30
2019-05-21T12:21:34.999Z,4.30
2019-05-21T12:24:04.177Z,6.40
2019-05-21T12:26:33.453Z,5.00
2019-05-21T12:29:02.705Z,5.40
2019-05-21T12:31:32.036Z,4.87
2019-05-21T12:34:01.505Z,4.93
2019-05-21T12:36:30.847Z,4.90
2019-05-21T12:39:13.080Z,4.20
2019-05-21T12:41:31.022Z,5.80
2019-05-21T12:44:00.209Z,6.13
2019-05-21T12:46:29.462Z,5.73
2019-05-21T12:48:58.689Z,4.53
2019-05-21T12:51:27.943Z,3.43
2019-05-21T12:53:57.339Z,3.53
2019-05-21T12:56:26.568Z,3.93
2019-05-21T12:58:55.736Z,5.97
2019-05-21T13:01:24.910Z,4.50
2019-05-21T13:03:55.529Z,5.50
2019-05-21T13:06:24.944Z,5.57
2019-05-21T13:08:54.337Z,4.63
2019-05-21T13:11:23.677Z,4.53
2019-05-21T13:13:52.863Z,4.30
2019-05-21T13:16:22.112Z,3.70
2019-05-21T13:18:51.383Z,5.33
2019-05-21T13:21:20.626Z,4.30
2019-05-21T13:23:49.842Z,3.80
2019-05-21T13:26:19.087Z,4.20
2019-05-21T13:28:48.504Z,3.13
2019-05-21T13:31:20.130Z,4.07
2019-05-21T13:33:49.672Z,4.27
2019-05-21T13:36:18.992Z,3.57
2019-05-21T13:38:48.177Z,3.37
2019-05-21T13:41:17.444Z,2.50
2019-05-21T13:43:46.703Z,3.97
2019-05-21T13:46:15.949Z,3.93
2019-05-21T13:48:47.151Z,3.30
2019-05-21T13:51:16.222Z,3.70
2019-05-21T13:53:45.481Z,3.50
2019-05-21T13:56:16.676Z,3.80
2019-05-21T13:58:45.914Z,2.30
2019-05-21T14:01:16.307Z,3.93
2019-05-21T14:03:45.765Z,4.63
2019-05-21T14:06:15.296Z,3.73
2019-05-21T14:08:44.583Z,4.07
2019-05-21T14:11:14.321Z,3.03
2019-05-21T14:13:43.501Z,3.80
2019-05-21T14:16:12.915Z,2.43
2019-05-21T14:18:42.359Z,3.90
2019-05-21T14:21:11.604Z,3.47
2019-05-21T14:23:40.852Z,3.57
2019-05-21T14:26:10.090Z,3.30
2019-05-21T14:28:39.338Z,3.40
2019-05-21T14:31:08.596Z,3.40
2019-05-21T14:33:37.934Z,3.23
2019-05-21T14:36:07.200Z,3.50
2019-05-21T14:38:36.488Z,2.90
2019-05-21T14:41:05.772Z,3.20
2019-05-21T14:43:35.034Z,4.53
2019-05-21T14:46:04.350Z,2.83
2019-05-21T14:48:33.633Z,3.77
2019-05-21T14:51:03.166Z,3.53
2019-05-21T14:53:32.482Z,3.27
2019-05-21T14:56:01.876Z,2.77
2019-05-21T14:58:31.140Z,3.20
2019-05-21T15:01:00.407Z,3.40
2019-05-21T15:03:29.795Z,4.33
2019-05-21T15:05:58.999Z,3.63
2019-05-21T15:08:28.235Z,3.37
2019-05-21T15:10:57.594Z,3.00
2019-05-21T15:13:26.767Z,3.47
2019-05-21T15:15:56.153Z,2.13
2019-05-21T15:18:25.701Z,2.80
2019-05-21T15:20:59.921Z,5.00
2019-05-21T15:23:29.153Z,2.77
2019-05-21T15:25:58.400Z,4.97
2019-05-21T15:28:27.661Z,3.70
2019-05-21T15:30:56.951Z,3.63
2019-05-21T15:33:26.128Z,3.57
2019-05-21T15:35:55.462Z,4.00
2019-05-21T15:38:24.759Z,4.10
2019-05-21T15:41:09.765Z,3.73
2019-05-21T15:43:24.931Z,3.13
2019-05-21T15:45:54.417Z,3.87
2019-05-21T15:48:26.655Z,2.30
2019-05-21T15:50:54.569Z,2.00
2019-05-21T15:53:23.775Z,2.87
2019-05-21T15:55:53.034Z,3.27
2019-05-21T15:58:26.603Z,3.23
2019-05-21T16:00:54.841Z,2.40
2019-05-21T16:03:24.049Z,2.00
2019-05-21T16:05:53.296Z,2.83
2019-05-21T16:08:22.577Z,2.97
2019-05-21T16:10:51.901Z,3.20
2019-05-21T16:13:21.225Z,2.70
2019-05-21T16:15:50.437Z,2.17
2019-05-21T16:18:19.698Z,3.27
2019-05-21T16:20:48.945Z,3.47
2019-05-21T16:23:18.156Z,2.93
2019-05-21T16:25:47.341Z,3.40
2019-05-21T16:28:16.829Z,4.10
2019-05-21T16:30:46.142Z,4.37
2019-05-21T16:33:15.509Z,4.00
2019-05-21T16:35:44.706Z,3.40
2019-05-21T16:38:13.921Z,2.73
2019-05-21T16:40:43.190Z,3.03
2019-05-21T16:43:12.531Z,2.80
2019-05-21T16:45:41.807Z,3.30
2019-05-21T16:48:11.418Z,3.20
2019-05-21T16:50:40.744Z,4.20
2019-05-21T16:53:09.946Z,3.53
2019-05-21T16:55:39.226Z,3.10
2019-05-21T16:58:08.577Z,3.57
2019-05-21T17:00:37.841Z,4.00
2019-05-21T17:03:07.347Z,3.07
2019-05-21T17:05:36.600Z,3.33
2019-05-21T17:08:06.336Z,2.73
2019-05-21T17:10:35.679Z,3.43
2019-05-21T17:13:04.933Z,3.73
2019-05-21T17:15:34.208Z,2.73
2019-05-21T17:18:03.467Z,3.10
2019-05-21T17:20:34.197Z,3.60
2019-05-21T17:23:03.655Z,2.87
2019-05-21T17:25:33.012Z,3.30
2019-05-21T17:28:02.269Z,3.10
2019-05-21T17:30:31.622Z,3.33
2019-05-21T17:33:00.954Z,3.00
2019-05-21T17:35:30.229Z,3.60
2019-05-21T17:37:59.500Z,3.33
2019-05-21T17:40:28.749Z,4.23
2019-05-21T17:42:57.915Z,4.30
2019-05-21T17:45:27.119Z,3.53
2019-05-21T17:47:56.387Z,4.37
2019-05-21T17:50:25.699Z,4.50
2019-05-21T17:52:55.369Z,4.37
2019-05-21T17:55:25.039Z,3.50
2019-05-21T17:57:55.332Z,4.97
2019-05-21T18:00:44.915Z,3.93
2019-05-21T18:03:15.990Z,3.97
2019-05-21T18:05:46.055Z,4.37
2019-05-21T18:08:17.192Z,4.80
2019-05-21T18:10:47.493Z,4.20
2019-05-21T18:13:18.052Z,3.87
2019-05-21T18:15:47.709Z,5.33
2019-05-21T18:18:17.342Z,5.83
2019-05-21T18:20:46.661Z,3.10
2019-05-21T18:23:16.019Z,4.57
2019-05-21T18:25:45.478Z,4.20
2019-05-21T18:28:14.655Z,4.73
2019-05-21T18:30:44.509Z,2.73
2019-05-21T18:33:14.317Z,2.90
2019-05-21T18:35:45.402Z,2.63
2019-05-21T18:38:14.778Z,3.30
2019-05-21T18:40:44.156Z,3.70
2019-05-21T18:43:13.353Z,4.93
2019-05-21T18:45:42.654Z,4.50
2019-05-21T18:48:11.925Z,3.80
2019-05-21T18:50:41.115Z,4.00
2019-05-21T18:53:10.530Z,3.60
2019-05-21T18:55:40.101Z,3.30
2019-05-21T18:58:09.337Z,5.00
2019-05-21T19:00:38.642Z,4.10
2019-05-21T19:03:08.330Z,3.93
2019-05-21T19:05:37.936Z,4.63
2019-05-21T19:08:07.788Z,3.23
2019-05-21T19:10:37.325Z,5.83
2019-05-21T19:13:06.593Z,3.70
2019-05-21T19:15:35.971Z,6.27
2019-05-21T19:18:05.548Z,4.57
2019-05-21T19:20:34.826Z,7.00
2019-05-21T19:23:04.295Z,3.67
2019-05-21T19:25:33.572Z,5.17
2019-05-21T19:28:03.128Z,7.07
2019-05-21T19:30:33.503Z,5.03
2019-05-21T19:33:02.766Z,5.50
2019-05-21T19:35:33.138Z,6.87
2019-05-21T19:38:02.817Z,6.70
2019-05-21T19:40:32.093Z,6.77
2019-05-21T19:43:01.367Z,8.10
2019-05-21T19:45:31.488Z,5.00
2019-05-21T19:48:01.298Z,6.47
2019-05-21T19:50:30.985Z,8.73
2019-05-21T19:53:00.271Z,6.33
2019-05-21T19:55:31.039Z,7.27
2019-05-21T19:58:00.297Z,6.70
2019-05-21T20:00:31.521Z,7.50
2019-05-21T20:03:01.132Z,7.93
2019-05-21T20:05:30.790Z,9.47
2019-05-21T20:08:00.988Z,7.30
2019-05-21T20:10:30.492Z,8.70
2019-05-21T20:12:59.705Z,6.77
2019-05-21T20:15:29.691Z,6.03
2019-05-21T20:18:07.524Z,5.97
2019-05-21T20:20:31.576Z,7.07
2019-05-21T20:23:02.397Z,7.20
2019-05-21T20:25:33.825Z,7.93
2019-05-21T20:28:05.227Z,6.57
2019-05-21T20:30:35.086Z,7.40
2019-05-21T20:33:05.517Z,6.90
2019-05-21T20:35:36.452Z,6.90
2019-05-21T20:38:07.606Z,7.43
2019-05-21T20:40:37.216Z,8.07
2019-05-21T20:43:06.870Z,8.30
2019-05-21T20:45:38.890Z,7.73
2019-05-21T20:48:09.164Z,7.50
2019-05-21T20:50:39.351Z,6.40
2019-05-21T20:53:09.561Z,7.90
2019-05-21T20:55:39.258Z,8.23
2019-05-21T20:58:09.840Z,6.07
2019-05-21T21:00:40.939Z,6.83
2019-05-21T21:03:12.285Z,7.33
2019-05-21T21:05:43.149Z,6.87
2019-05-21T21:08:14.821Z,8.10
2019-05-21T21:10:44.556Z,7.63
2019-05-21T21:13:15.355Z,6.60
2019-05-21T21:15:44.620Z,7.87
2019-05-21T21:18:14.345Z,6.97
2019-05-21T21:20:43.923Z,6.27
2019-05-21T21:23:16.263Z,7.93
2019-05-21T21:25:45.812Z,7.27
2019-05-21T21:28:15.331Z,7.43
2019-05-21T21:30:46.068Z,6.10
2019-05-21T21:33:17.199Z,5.43
2019-05-21T21:35:46.502Z,6.73
2019-05-21T21:38:17.470Z,7.60
2019-05-21T21:40:46.821Z,5.22
2019-05-21T21:43:16.105Z,7.73
2019-05-21T21:45:45.355Z,7.20
2019-05-21T21:48:16.341Z,7.83
2019-05-21T21:50:45.551Z,8.10
2019-05-21T21:53:14.905Z,6.80
2019-05-21T21:55:44.128Z,6.00
2019-05-21T21:58:13.808Z,6.57
2019-05-21T22:01:31.208Z,5.97
2019-05-21T22:04:04.252Z,6.50
2019-05-21T22:06:36.832Z,6.67
2019-05-21T22:09:22.903Z,8.13
2019-05-21T22:11:54.849Z,8.70
2019-05-21T22:14:24.796Z,6.25
2019-05-21T22:16:54.548Z,5.05
2019-05-21T22:19:24.774Z,5.77
2019-05-21T22:21:55.291Z,10.05
2019-05-21T22:24:24.904Z,8.18
2019-05-21T22:26:54.634Z,8.20
2019-05-21T22:29:24.455Z,7.00
2019-05-21T22:31:53.804Z,7.43
2019-05-21T22:34:24.733Z,6.10
2019-05-21T22:36:54.474Z,6.57
2019-05-21T22:39:26.356Z,6.85
2019-05-21T22:41:56.164Z,7.40
2019-05-21T22:44:25.635Z,7.67
2019-05-21T22:46:55.378Z,8.85
2019-05-21T22:49:24.750Z,8.85
2019-05-21T22:51:54.318Z,8.88
2019-05-21T22:54:23.871Z,7.40
2019-05-21T22:56:53.521Z,9.10
2019-05-21T22:59:22.860Z,8.00
2019-05-21T23:01:54.379Z,9.03
2019-05-21T23:04:23.942Z,8.03
2019-05-21T23:06:53.349Z,7.53
2019-05-21T23:09:22.714Z,8.30
2019-05-21T23:11:51.929Z,9.75
2019-05-21T23:14:21.578Z,7.53
2019-05-21T23:16:51.016Z,9.23
2019-05-21T23:19:24.397Z,9.45
2019-05-21T23:21:54.338Z,8.07
2019-05-21T23:24:25.006Z,8.07
2019-05-21T23:26:55.377Z,8.90
2019-05-21T23:29:24.949Z,9.10
2019-05-21T23:31:54.480Z,6.78
2019-05-21T23:34:23.766Z,4.97
2019-05-21T23:36:53.470Z,8.20
2019-05-21T23:39:26.293Z,6.70
2019-05-21T23:41:56.341Z,6.83
2019-05-21T23:44:26.536Z,7.87
2019-05-21T23:46:58.970Z,6.20
2019-05-21T23:49:28.883Z,7.65
2019-05-21T23:51:58.355Z,8.05
2019-05-21T23:54:28.345Z,6.70
2019-05-21T23:56:59.355Z,8.53
2019-05-21T23:59:29.114Z,7.90
